sensor_id;sensor_type;location;lat;lon;timestamp;pressure;altitude;pressure_sealevel;temperature;humidity
71638;BME280;59485;43.542;-5.676;2023-02-26T00:00:13;100986.81;;;9.14;100.00
71638;BME280;59485;43.542;-5.676;2023-02-26T00:02:48;100979.34;;;9.08;100.00
71638;BME280;59485;43.542;-5.676;2023-02-26T00:05:34;100982.75;;;9.10;100.00
71638;BME280;59485;43.542;-5.676;2023-02-26T00:08:06;100991.81;;;9.10;100.00
71638;BME280;59485;43.542;-5.676;2023-02-26T00:18:11;100993.53;;;9.03;100.00
71638;BME280;59485;43.542;-5.676;2023-02-26T00:20:38;100997.97;;;9.04;100.00
71638;BME280;59485;43.542;-5.676;2023-02-26T00:23:09;100999.34;;;9.00;100.00
71638;BME280;59485;43.542;-5.676;2023-02-26T00:28:18;101012.34;;;8.98;100.00
71638;BME280;59485;43.542;-5.676;2023-02-26T00:30:47;101011.50;;;8.89;100.00
71638;BME280;59485;43.542;-5.676;2023-02-26T00:33:22;101008.78;;;8.81;100.00
71638;BME280;59485;43.542;-5.676;2023-02-26T00:35:48;101014.91;;;8.91;100.00
71638;BME280;59485;43.542;-5.676;2023-02-26T00:38:19;101015.09;;;8.90;100.00
71638;BME280;59485;43.542;-5.676;2023-02-26T00:40:46;101016.97;;;8.89;100.00
71638;BME280;59485;43.542;-5.676;2023-02-26T00:43:16;101022.28;;;8.83;100.00
71638;BME280;59485;43.542;-5.676;2023-02-26T00:59:21;101031.66;;;8.88;100.00
71638;BME280;59485;43.542;-5.676;2023-02-26T01:01:56;101033.38;;;8.89;100.00
71638;BME280;59485;43.542;-5.676;2023-02-26T01:04:24;101040.38;;;8.92;100.00
71638;BME280;59485;43.542;-5.676;2023-02-26T01:06:56;101048.41;;;8.93;100.00
71638;BME280;59485;43.542;-5.676;2023-02-26T01:09:29;101056.41;;;8.95;100.00
71638;BME280;59485;43.542;-5.676;2023-02-26T01:11:59;101059.16;;;8.95;100.00
71638;BME280;59485;43.542;-5.676;2023-02-26T01:14:25;101057.09;;;8.97;100.00
71638;BME280;59485;43.542;-5.676;2023-02-26T01:28:11;101072.66;;;8.96;100.00
71638;BME280;59485;43.542;-5.676;2023-02-26T01:30:57;101070.09;;;8.95;100.00
71638;BME280;59485;43.542;-5.676;2023-02-26T01:33:27;101078.97;;;8.97;100.00
71638;BME280;59485;43.542;-5.676;2023-02-26T01:43:32;101078.81;;;8.90;100.00
71638;BME280;59485;43.542;-5.676;2023-02-26T01:46:02;101089.22;;;8.95;100.00
71638;BME280;59485;43.542;-5.676;2023-02-26T01:50:57;101090.44;;;9.00;100.00
71638;BME280;59485;43.542;-5.676;2023-02-26T01:53:23;101093.00;;;9.02;100.00
71638;BME280;59485;43.542;-5.676;2023-02-26T01:55:58;101088.56;;;9.01;100.00
71638;BME280;59485;43.542;-5.676;2023-02-26T01:58:25;101089.91;;;9.05;100.00
71638;BME280;59485;43.542;-5.676;2023-02-26T02:00:51;101097.94;;;9.07;100.00
71638;BME280;59485;43.542;-5.676;2023-02-26T02:03:18;101096.06;;;9.07;100.00
71638;BME280;59485;43.542;-5.676;2023-02-26T02:05:45;101097.94;;;9.07;100.00
71638;BME280;59485;43.542;-5.676;2023-02-26T02:08:14;101101.03;;;9.03;100.00
71638;BME280;59485;43.542;-5.676;2023-02-26T02:10:43;101093.16;;;9.00;100.00
71638;BME280;59485;43.542;-5.676;2023-02-26T02:26:12;101106.50;;;8.87;100.00
71638;BME280;59485;43.542;-5.676;2023-02-26T02:31:36;101110.94;;;8.80;100.00
71638;BME280;59485;43.542;-5.676;2023-02-26T02:34:07;101103.28;;;8.76;100.00
71638;BME280;59485;43.542;-5.676;2023-02-26T02:39:32;101114.53;;;8.73;100.00
71638;BME280;59485;43.542;-5.676;2023-02-26T02:42:03;101111.28;;;8.77;100.00
71638;BME280;59485;43.542;-5.676;2023-02-26T02:44:31;101120.53;;;8.76;100.00
71638;BME280;59485;43.542;-5.676;2023-02-26T02:46:59;101119.66;;;8.76;100.00
71638;BME280;59485;43.542;-5.676;2023-02-26T02:49:30;101131.44;;;8.76;100.00
71638;BME280;59485;43.542;-5.676;2023-02-26T02:52:09;101126.00;;;8.76;100.00
71638;BME280;59485;43.542;-5.676;2023-02-26T02:57:34;101134.00;;;8.70;100.00
71638;BME280;59485;43.542;-5.676;2023-02-26T03:00:06;101136.88;;;8.68;100.00
71638;BME280;59485;43.542;-5.676;2023-02-26T03:05:20;101144.75;;;8.71;100.00
71638;BME280;59485;43.542;-5.676;2023-02-26T03:07:48;101140.47;;;8.69;100.00
71638;BME280;59485;43.542;-5.676;2023-02-26T03:10:14;101144.06;;;8.61;100.00
71638;BME280;59485;43.542;-5.676;2023-02-26T03:12:40;101145.59;;;8.63;100.00
71638;BME280;59485;43.542;-5.676;2023-02-26T03:15:06;101151.06;;;8.63;100.00
71638;BME280;59485;43.542;-5.676;2023-02-26T03:17:44;101146.78;;;8.61;100.00
71638;BME280;59485;43.542;-5.676;2023-02-26T03:22:42;101144.91;;;8.61;100.00
71638;BME280;59485;43.542;-5.676;2023-02-26T03:27:48;101152.59;;;8.58;100.00
71638;BME280;59485;43.542;-5.676;2023-02-26T03:30:32;101162.84;;;8.56;100.00
71638;BME280;59485;43.542;-5.676;2023-02-26T03:41:05;101149.31;;;8.38;100.00
71638;BME280;59485;43.542;-5.676;2023-02-26T03:46:31;101157.16;;;8.41;100.00
71638;BME280;59485;43.542;-5.676;2023-02-26T03:49:03;101160.59;;;8.43;100.00
71638;BME280;59485;43.542;-5.676;2023-02-26T03:51:30;101165.34;;;8.41;100.00
71638;BME280;59485;43.542;-5.676;2023-02-26T03:54:03;101163.66;;;8.40;100.00
71638;BME280;59485;43.542;-5.676;2023-02-26T03:56:32;101155.81;;;8.37;100.00
71638;BME280;59485;43.542;-5.676;2023-02-26T03:59:00;101158.00;;;8.34;100.00
71638;BME280;59485;43.542;-5.676;2023-02-26T04:01:30;101156.13;;;8.34;100.00
71638;BME280;59485;43.542;-5.676;2023-02-26T04:04:04;101159.22;;;8.31;100.00
71638;BME280;59485;43.542;-5.676;2023-02-26T04:06:31;101157.47;;;8.30;100.00
71638;BME280;59485;43.542;-5.676;2023-02-26T04:08:58;101159.22;;;8.31;100.00
71638;BME280;59485;43.542;-5.676;2023-02-26T04:11:23;101157.47;;;8.30;100.00
71638;BME280;59485;43.542;-5.676;2023-02-26T04:13:49;101157.63;;;8.28;100.00
71638;BME280;59485;43.542;-5.676;2023-02-26T04:16:15;101165.66;;;8.30;100.00
71638;BME280;59485;43.542;-5.676;2023-02-26T04:18:43;101172.28;;;8.27;100.00
71638;BME280;59485;43.542;-5.676;2023-02-26T04:21:12;101164.63;;;8.23;100.00
71638;BME280;59485;43.542;-5.676;2023-02-26T04:23:38;101171.59;;;8.25;100.00
71638;BME280;59485;43.542;-5.676;2023-02-26T04:26:03;101171.09;;;8.22;100.00
71638;BME280;59485;43.542;-5.676;2023-02-26T04:28:35;101168.69;;;8.19;100.00
71638;BME280;59485;43.542;-5.676;2023-02-26T04:31:02;101156.88;;;8.10;100.00
71638;BME280;59485;43.542;-5.676;2023-02-26T04:33:27;101155.31;;;8.08;100.00
71638;BME280;59485;43.542;-5.676;2023-02-26T04:35:55;101163.22;;;8.19;100.00
71638;BME280;59485;43.542;-5.676;2023-02-26T04:38:21;101168.38;;;8.22;100.00
71638;BME280;59485;43.542;-5.676;2023-02-26T04:40:47;101177.56;;;8.21;100.00
71638;BME280;59485;43.542;-5.676;2023-02-26T04:43:13;101180.09;;;8.14;100.00
71638;BME280;59485;43.542;-5.676;2023-02-26T04:45:38;101173.13;;;8.20;100.00
71638;BME280;59485;43.542;-5.676;2023-02-26T04:48:04;101184.75;;;8.22;100.00
71638;BME280;59485;43.542;-5.676;2023-02-26T04:50:29;101196.53;;;8.22;100.00
71638;BME280;59485;43.542;-5.676;2023-02-26T04:52:54;101202.66;;;8.24;100.00
71638;BME280;59485;43.542;-5.676;2023-02-26T04:55:20;101201.63;;;8.25;100.00
71638;BME280;59485;43.542;-5.676;2023-02-26T05:00:25;101205.44;;;8.33;100.00
71638;BME280;59485;43.542;-5.676;2023-02-26T05:07:47;101214.13;;;8.28;100.00
71638;BME280;59485;43.542;-5.676;2023-02-26T05:10:20;101213.56;;;8.24;100.00
71638;BME280;59485;43.542;-5.676;2023-02-26T05:12:45;101223.66;;;8.24;100.00
71638;BME280;59485;43.542;-5.676;2023-02-26T05:15:13;101210.19;;;8.22;100.00
71638;BME280;59485;43.542;-5.676;2023-02-26T05:17:39;101212.06;;;8.22;100.00
71638;BME280;59485;43.542;-5.676;2023-02-26T05:20:04;101208.25;;;8.15;100.00
71638;BME280;59485;43.542;-5.676;2023-02-26T05:22:30;101209.63;;;8.11;100.00
71638;BME280;59485;43.542;-5.676;2023-02-26T05:24:56;101209.63;;;8.11;100.00
71638;BME280;59485;43.542;-5.676;2023-02-26T05:27:21;101212.66;;;8.08;100.00
71638;BME280;59485;43.542;-5.676;2023-02-26T05:29:46;101216.41;;;8.07;100.00
71638;BME280;59485;43.542;-5.676;2023-02-26T05:32:12;101225.44;;;8.07;100.00
71638;BME280;59485;43.542;-5.676;2023-02-26T05:34:37;101227.00;;;8.10;100.00
71638;BME280;59485;43.542;-5.676;2023-02-26T05:37:05;101235.66;;;8.05;100.00
71638;BME280;59485;43.542;-5.676;2023-02-26T05:39:30;101252.25;;;8.04;100.00
71638;BME280;59485;43.542;-5.676;2023-02-26T05:41:56;101257.00;;;8.02;100.00
71638;BME280;59485;43.542;-5.676;2023-02-26T05:44:22;101264.69;;;8.06;100.00
71638;BME280;59485;43.542;-5.676;2023-02-26T05:46:47;101253.56;;;8.00;100.00
71638;BME280;59485;43.542;-5.676;2023-02-26T05:49:13;101264.88;;;8.05;100.00
71638;BME280;59485;43.542;-5.676;2023-02-26T05:51:38;101280.91;;;8.08;100.00
71638;BME280;59485;43.542;-5.676;2023-02-26T05:54:04;101271.34;;;8.04;100.00
71638;BME280;59485;43.542;-5.676;2023-02-26T05:56:29;101271.41;;;8.12;100.00
71638;BME280;59485;43.542;-5.676;2023-02-26T05:58:55;101264.25;;;8.19;100.00
71638;BME280;59485;43.542;-5.676;2023-02-26T06:01:20;101252.31;;;8.20;100.00
71638;BME280;59485;43.542;-5.676;2023-02-26T06:03:45;101258.28;;;8.23;100.00
71638;BME280;59485;43.542;-5.676;2023-02-26T06:06:12;101256.97;;;8.27;100.00
71638;BME280;59485;43.542;-5.676;2023-02-26T06:08:38;101254.06;;;8.29;100.00
71638;BME280;59485;43.542;-5.676;2023-02-26T06:11:04;101255.47;;;8.33;100.00
71638;BME280;59485;43.542;-5.676;2023-02-26T06:13:29;101255.47;;;8.33;100.00
71638;BME280;59485;43.542;-5.676;2023-02-26T06:15:54;101251.41;;;8.37;100.00
71638;BME280;59485;43.542;-5.676;2023-02-26T06:18:20;101254.28;;;8.36;100.00
71638;BME280;59485;43.542;-5.676;2023-02-26T06:20:45;101253.13;;;8.38;100.00
71638;BME280;59485;43.542;-5.676;2023-02-26T06:23:11;101269.16;;;8.41;100.00
71638;BME280;59485;43.542;-5.676;2023-02-26T06:25:36;101269.16;;;8.41;100.00
71638;BME280;59485;43.542;-5.676;2023-02-26T06:28:01;101266.09;;;8.44;100.00
71638;BME280;59485;43.542;-5.676;2023-02-26T06:30:27;101262.34;;;8.45;100.00
71638;BME280;59485;43.542;-5.676;2023-02-26T06:32:52;101268.53;;;8.47;100.00
71638;BME280;59485;43.542;-5.676;2023-02-26T06:35:18;101276.03;;;8.45;100.00
71638;BME280;59485;43.542;-5.676;2023-02-26T06:37:43;101270.56;;;8.45;100.00
71638;BME280;59485;43.542;-5.676;2023-02-26T06:40:09;101279.59;;;8.46;100.00
71638;BME280;59485;43.542;-5.676;2023-02-26T06:42:35;101291.56;;;8.45;100.00
71638;BME280;59485;43.542;-5.676;2023-02-26T06:45:00;101287.97;;;8.44;100.00
71638;BME280;59485;43.542;-5.676;2023-02-26T06:47:25;101288.81;;;8.45;100.00
71638;BME280;59485;43.542;-5.676;2023-02-26T06:49:51;101292.41;;;8.45;100.00
71638;BME280;59485;43.542;-5.676;2023-02-26T06:52:16;101290.69;;;8.44;100.00
71638;BME280;59485;43.542;-5.676;2023-02-26T06:54:41;101293.59;;;8.43;100.00
71638;BME280;59485;43.542;-5.676;2023-02-26T06:57:07;101294.13;;;8.46;100.00
71638;BME280;59485;43.542;-5.676;2023-02-26T06:59:32;101294.81;;;8.48;100.00
71638;BME280;59485;43.542;-5.676;2023-02-26T07:01:58;101291.22;;;8.48;100.00
71638;BME280;59485;43.542;-5.676;2023-02-26T07:04:23;101311.22;;;8.48;100.00
71638;BME280;59485;43.542;-5.676;2023-02-26T07:06:48;101313.94;;;8.48;100.00
71638;BME280;59485;43.542;-5.676;2023-02-26T07:09:14;101310.19;;;8.49;100.00
71638;BME280;59485;43.542;-5.676;2023-02-26T07:11:39;101320.78;;;8.52;100.00
71638;BME280;59485;43.542;-5.676;2023-02-26T07:14:04;101330.00;;;8.51;100.00
71638;BME280;59485;43.542;-5.676;2023-02-26T07:16:30;101330.34;;;8.48;100.00
71638;BME280;59485;43.542;-5.676;2023-02-26T07:18:55;101323.34;;;8.54;100.00
71638;BME280;59485;43.542;-5.676;2023-02-26T07:21:20;101326.94;;;8.54;100.00
71638;BME280;59485;43.542;-5.676;2023-02-26T07:23:46;101336.31;;;8.52;100.00
71638;BME280;59485;43.542;-5.676;2023-02-26T07:26:11;101337.34;;;8.51;100.00
71638;BME280;59485;43.542;-5.676;2023-02-26T07:28:36;101343.66;;;8.51;100.00
71638;BME280;59485;43.542;-5.676;2023-02-26T07:31:22;101339.22;;;8.50;100.00
71638;BME280;59485;43.542;-5.676;2023-02-26T07:33:48;101351.19;;;8.49;100.00
71638;BME280;59485;43.542;-5.676;2023-02-26T07:36:13;101343.50;;;8.53;100.00
71638;BME280;59485;43.542;-5.676;2023-02-26T07:38:38;101351.00;;;8.51;100.00
71638;BME280;59485;43.542;-5.676;2023-02-26T07:41:04;101360.56;;;8.47;100.00
71638;BME280;59485;43.542;-5.676;2023-02-26T07:43:29;101363.94;;;8.41;100.00
71638;BME280;59485;43.542;-5.676;2023-02-26T07:45:54;101362.22;;;8.40;100.00
71638;BME280;59485;43.542;-5.676;2023-02-26T07:48:20;101369.22;;;8.42;100.00
71638;BME280;59485;43.542;-5.676;2023-02-26T07:50:45;101368.53;;;8.40;100.00
71638;BME280;59485;43.542;-5.676;2023-02-26T07:53:10;101374.69;;;8.42;100.00
71638;BME280;59485;43.542;-5.676;2023-02-26T07:55:36;101377.59;;;8.41;100.00
71638;BME280;59485;43.542;-5.676;2023-02-26T07:58:01;101381.16;;;8.41;100.00
71638;BME280;59485;43.542;-5.676;2023-02-26T08:00:27;101382.56;;;8.45;100.00
71638;BME280;59485;43.542;-5.676;2023-02-26T08:02:52;101384.59;;;8.43;100.00
71638;BME280;59485;43.542;-5.676;2023-02-26T08:05:17;101393.81;;;8.42;100.00
71638;BME280;59485;43.542;-5.676;2023-02-26T08:07:43;101386.63;;;8.41;100.00
71638;BME280;59485;43.542;-5.676;2023-02-26T08:10:08;101389.91;;;8.45;100.00
71638;BME280;59485;43.542;-5.676;2023-02-26T08:12:34;101394.19;;;8.47;100.00
71638;BME280;59485;43.542;-5.676;2023-02-26T08:15:00;101390.59;;;8.47;100.00
71638;BME280;59485;43.542;-5.676;2023-02-26T08:17:26;101403.59;;;8.53;100.00
71638;BME280;59485;43.542;-5.676;2023-02-26T08:19:51;101404.16;;;8.56;100.00
71638;BME280;59485;43.542;-5.676;2023-02-26T08:22:17;101412.00;;;8.59;100.00
71638;BME280;59485;43.542;-5.676;2023-02-26T08:24:43;101403.19;;;8.65;100.00
71638;BME280;59485;43.542;-5.676;2023-02-26T08:27:14;101410.94;;;8.86;100.00
71638;BME280;59485;43.542;-5.676;2023-02-26T08:29:40;101408.28;;;8.94;100.00
71638;BME280;59485;43.542;-5.676;2023-02-26T08:32:05;101397.38;;;9.02;100.00
71638;BME280;59485;43.542;-5.676;2023-02-26T08:34:30;101399.13;;;9.12;100.00
71638;BME280;59485;43.542;-5.676;2023-02-26T08:36:56;101392.97;;;9.18;100.00
71638;BME280;59485;43.542;-5.676;2023-02-26T08:39:21;101392.47;;;9.22;100.00
71638;BME280;59485;43.542;-5.676;2023-02-26T08:41:46;101400.88;;;9.29;100.00
71638;BME280;59485;43.542;-5.676;2023-02-26T08:44:12;101399.66;;;9.31;100.00
71638;BME280;59485;43.542;-5.676;2023-02-26T08:46:37;101403.97;;;9.34;100.00
71638;BME280;59485;43.542;-5.676;2023-02-26T08:49:02;101407.88;;;9.39;100.00
71638;BME280;59485;43.542;-5.676;2023-02-26T08:51:28;101416.47;;;9.45;100.00
71638;BME280;59485;43.542;-5.676;2023-02-26T08:53:53;101417.16;;;9.47;100.00
71638;BME280;59485;43.542;-5.676;2023-02-26T08:56:18;101421.63;;;9.48;100.00
71638;BME280;59485;43.542;-5.676;2023-02-26T08:58:44;101424.00;;;9.51;100.00
71638;BME280;59485;43.542;-5.676;2023-02-26T09:01:09;101431.03;;;9.53;100.00
71638;BME280;59485;43.542;-5.676;2023-02-26T09:03:34;101438.22;;;9.54;100.00
71638;BME280;59485;43.542;-5.676;2023-02-26T09:06:00;101442.50;;;9.57;100.00
71638;BME280;59485;43.542;-5.676;2023-02-26T09:08:25;101445.25;;;9.57;100.00
71638;BME280;59485;43.542;-5.676;2023-02-26T09:10:51;101447.63;;;9.60;100.00
71638;BME280;59485;43.542;-5.676;2023-02-26T09:13:16;101441.81;;;9.63;100.00
71638;BME280;59485;43.542;-5.676;2023-02-26T09:15:41;101453.97;;;9.60;100.00
71638;BME280;59485;43.542;-5.676;2023-02-26T09:18:07;101451.06;;;9.62;100.00
71638;BME280;59485;43.542;-5.676;2023-02-26T09:20:39;101453.81;;;9.70;100.00
71638;BME280;59485;43.542;-5.676;2023-02-26T09:23:05;101461.69;;;9.73;100.00
71638;BME280;59485;43.542;-5.676;2023-02-26T09:25:30;101462.19;;;9.76;100.00
71638;BME280;59485;43.542;-5.676;2023-02-26T09:27:55;101468.22;;;9.80;100.00
71638;BME280;59485;43.542;-5.676;2023-02-26T09:30:21;101474.53;;;9.81;100.00
71638;BME280;59485;43.542;-5.676;2023-02-26T09:32:46;101479.00;;;9.82;100.00
71638;BME280;59485;43.542;-5.676;2023-02-26T09:35:11;101474.22;;;9.84;100.00
71638;BME280;59485;43.542;-5.676;2023-02-26T09:37:37;101481.06;;;9.88;100.00
71638;BME280;59485;43.542;-5.676;2023-02-26T09:40:03;101478.47;;;9.86;100.00
71638;BME280;59485;43.542;-5.676;2023-02-26T09:42:33;101479.50;;;9.85;100.00
71638;BME280;59485;43.542;-5.676;2023-02-26T09:45:04;101483.94;;;9.86;100.00
71638;BME280;59485;43.542;-5.676;2023-02-26T09:47:35;101488.25;;;9.89;100.00
71638;BME280;59485;43.542;-5.676;2023-02-26T09:55:13;101490.44;;;9.85;100.00
71638;BME280;59485;43.542;-5.676;2023-02-26T09:57:41;101493.72;;;9.81;100.00
71638;BME280;59485;43.542;-5.676;2023-02-26T10:00:20;101492.84;;;9.80;100.00
71638;BME280;59485;43.542;-5.676;2023-02-26T10:05:17;101506.22;;;9.83;100.00
71638;BME280;59485;43.542;-5.676;2023-02-26T10:12:38;101504.50;;;9.90;100.00
71638;BME280;59485;43.542;-5.676;2023-02-26T10:15:10;101509.28;;;9.88;100.00
71638;BME280;59485;43.542;-5.676;2023-02-26T10:20:23;101511.03;;;9.97;100.00
71638;BME280;59485;43.542;-5.676;2023-02-26T10:25:47;101519.91;;;9.91;100.00
71638;BME280;59485;43.542;-5.676;2023-02-26T10:28:33;101521.44;;;9.94;100.00
71638;BME280;59485;43.542;-5.676;2023-02-26T10:31:02;101527.13;;;9.92;100.00
71638;BME280;59485;43.542;-5.676;2023-02-26T10:33:48;101519.22;;;9.89;100.00
71638;BME280;59485;43.542;-5.676;2023-02-26T10:36:19;101526.94;;;9.94;100.00
71638;BME280;59485;43.542;-5.676;2023-02-26T10:38:46;101520.78;;;9.92;100.00
71638;BME280;59485;43.542;-5.676;2023-02-26T10:41:14;101524.38;;;9.92;100.00
71638;BME280;59485;43.542;-5.676;2023-02-26T10:43:47;101526.25;;;9.92;100.00
71638;BME280;59485;43.542;-5.676;2023-02-26T10:48:59;101535.66;;;9.89;100.00
71638;BME280;59485;43.542;-5.676;2023-02-26T10:51:31;101534.63;;;9.90;100.00
71638;BME280;59485;43.542;-5.676;2023-02-26T10:53:58;101535.66;;;9.89;100.00
71638;BME280;59485;43.542;-5.676;2023-02-26T10:56:31;101540.81;;;9.92;100.00
71638;BME280;59485;43.542;-5.676;2023-02-26T10:58:57;101550.03;;;9.91;100.00
71638;BME280;59485;43.542;-5.676;2023-02-26T11:01:23;101548.16;;;9.92;100.00
71638;BME280;59485;43.542;-5.676;2023-02-26T11:04:11;101557.03;;;9.94;100.00
71638;BME280;59485;43.542;-5.676;2023-02-26T11:06:45;101549.69;;;9.94;100.00
71638;BME280;59485;43.542;-5.676;2023-02-26T11:09:21;101554.00;;;9.97;100.00
71638;BME280;59485;43.542;-5.676;2023-02-26T11:14:14;101562.91;;;9.99;100.00
71638;BME280;59485;43.542;-5.676;2023-02-26T11:16:45;101564.78;;;10.06;100.00
71638;BME280;59485;43.542;-5.676;2023-02-26T11:19:12;101551.28;;;10.13;100.00
71638;BME280;59485;43.542;-5.676;2023-02-26T11:21:39;101568.25;;;10.16;100.00
71638;BME280;59485;43.542;-5.676;2023-02-26T11:26:49;101560.88;;;10.17;100.00
71638;BME280;59485;43.542;-5.676;2023-02-26T11:29:19;101563.50;;;10.19;100.00
71638;BME280;59485;43.542;-5.676;2023-02-26T11:31:50;101568.97;;;10.19;100.00
71638;BME280;59485;43.542;-5.676;2023-02-26T11:34:15;101560.06;;;10.25;100.00
71638;BME280;59485;43.542;-5.676;2023-02-26T11:36:45;101566.09;;;10.28;100.00
71638;BME280;59485;43.542;-5.676;2023-02-26T11:39:44;101556.47;;;10.32;100.00
71638;BME280;59485;43.542;-5.676;2023-02-26T11:42:02;101559.75;;;10.36;100.00
71638;BME280;59485;43.542;-5.676;2023-02-26T11:44:38;101574.66;;;10.41;100.00
71638;BME280;59485;43.542;-5.676;2023-02-26T11:47:12;101574.47;;;10.43;100.00
71638;BME280;59485;43.542;-5.676;2023-02-26T11:49:43;101576.38;;;10.42;100.00
71638;BME280;59485;43.542;-5.676;2023-02-26T11:54:40;101571.56;;;10.52;100.00
71638;BME280;59485;43.542;-5.676;2023-02-26T11:57:16;101575.19;;;10.61;100.00
71638;BME280;59485;43.542;-5.676;2023-02-26T11:59:42;101573.63;;;10.75;100.00
71638;BME280;59485;43.542;-5.676;2023-02-26T12:02:13;101576.88;;;10.86;100.00
71638;BME280;59485;43.542;-5.676;2023-02-26T12:04:42;101579.28;;;10.89;100.00
71638;BME280;59485;43.542;-5.676;2023-02-26T12:07:14;101574.47;;;11.00;100.00
71638;BME280;59485;43.542;-5.676;2023-02-26T12:09:40;101568.13;;;10.99;100.00
71638;BME280;59485;43.542;-5.676;2023-02-26T12:12:12;101569.31;;;11.05;100.00
71638;BME280;59485;43.542;-5.676;2023-02-26T12:27:37;101572.72;;;11.23;100.00
71638;BME280;59485;43.542;-5.676;2023-02-26T12:38:16;101577.38;;;10.98;100.00
71638;BME280;59485;43.542;-5.676;2023-02-26T12:41:05;101570.19;;;10.97;100.00
71638;BME280;59485;43.542;-5.676;2023-02-26T12:46:07;101572.59;;;10.84;100.00
71638;BME280;59485;43.542;-5.676;2023-02-26T12:58:33;101581.69;;;10.68;100.00
71638;BME280;59485;43.542;-5.676;2023-02-26T13:03:52;101573.09;;;10.47;100.00
71638;BME280;59485;43.542;-5.676;2023-02-26T13:06:36;101578.56;;;10.47;100.00
71638;BME280;59485;43.542;-5.676;2023-02-26T13:09:26;101570.88;;;10.42;100.00
71638;BME280;59485;43.542;-5.676;2023-02-26T13:19:35;101579.53;;;10.13;100.00
71638;BME280;59485;43.542;-5.676;2023-02-26T13:22:14;101572.00;;;10.15;100.00
71638;BME280;59485;43.542;-5.676;2023-02-26T13:27:09;101570.44;;;10.05;100.00
71638;BME280;59485;43.542;-5.676;2023-02-26T13:29:39;101571.63;;;10.02;100.00
71638;BME280;59485;43.542;-5.676;2023-02-26T13:32:10;101583.44;;;10.03;100.00
71638;BME280;59485;43.542;-5.676;2023-02-26T13:37:41;101577.78;;;10.04;100.00
71638;BME280;59485;43.542;-5.676;2023-02-26T13:48:19;101592.50;;;10.03;100.00
71638;BME280;59485;43.542;-5.676;2023-02-26T13:55:47;101589.13;;;10.09;100.00
71638;BME280;59485;43.542;-5.676;2023-02-26T14:00:38;101586.88;;;10.13;100.00
71638;BME280;59485;43.542;-5.676;2023-02-26T14:03:11;101586.72;;;10.14;100.00
71638;BME280;59485;43.542;-5.676;2023-02-26T14:08:24;101590.22;;;10.25;100.00
71638;BME280;59485;43.542;-5.676;2023-02-26T14:10:55;101585.25;;;10.28;100.00
71638;BME280;59485;43.542;-5.676;2023-02-26T14:13:21;101586.13;;;10.29;100.00
71638;BME280;59485;43.542;-5.676;2023-02-26T14:15:49;101579.41;;;10.31;100.00
71638;BME280;59485;43.542;-5.676;2023-02-26T14:18:23;101579.97;;;10.35;100.00
71638;BME280;59485;43.542;-5.676;2023-02-26T14:20:49;101575.50;;;10.34;100.00
71638;BME280;59485;43.542;-5.676;2023-02-26T14:23:22;101575.50;;;10.34;100.00
71638;BME280;59485;43.542;-5.676;2023-02-26T14:25:52;101578.25;;;10.34;100.00
71638;BME280;59485;43.542;-5.676;2023-02-26T14:30:49;101591.63;;;10.37;100.00
71638;BME280;59485;43.542;-5.676;2023-02-26T14:33:16;101585.94;;;10.38;100.00
71638;BME280;59485;43.542;-5.676;2023-02-26T14:35:48;101592.47;;;10.45;100.00
71638;BME280;59485;43.542;-5.676;2023-02-26T14:40:43;101589.19;;;10.34;100.00
71638;BME280;59485;43.542;-5.676;2023-02-26T14:46:05;101593.34;;;10.38;100.00
71638;BME280;59485;43.542;-5.676;2023-02-26T14:48:31;101595.00;;;10.39;100.00
71638;BME280;59485;43.542;-5.676;2023-02-26T15:07:19;101605.66;;;10.50;100.00
71638;BME280;59485;43.542;-5.676;2023-02-26T15:09:17;101609.44;;;10.49;100.00
71638;BME280;59485;43.542;-5.676;2023-02-26T15:12:01;101608.78;;;10.55;100.00
71638;BME280;59485;43.542;-5.676;2023-02-26T15:14:33;101608.56;;;10.57;100.00
71638;BME280;59485;43.542;-5.676;2023-02-26T15:24:36;101617.00;;;10.55;100.00
71638;BME280;59485;43.542;-5.676;2023-02-26T15:27:03;101621.09;;;10.51;100.00
71638;BME280;59485;43.542;-5.676;2023-02-26T15:29:31;101622.63;;;10.53;100.00
71638;BME280;59485;43.542;-5.676;2023-02-26T15:32:03;101618.00;;;10.54;100.00
71638;BME280;59485;43.542;-5.676;2023-02-26T15:34:30;101619.72;;;10.55;100.00
71638;BME280;59485;43.542;-5.676;2023-02-26T15:36:57;101624.84;;;10.58;100.00
71638;BME280;59485;43.542;-5.676;2023-02-26T15:39:23;101624.16;;;10.56;100.00
71638;BME280;59485;43.542;-5.676;2023-02-26T15:41:49;101627.91;;;10.47;100.00
71638;BME280;59485;43.542;-5.676;2023-02-26T15:44:23;101624.00;;;10.49;100.00
71638;BME280;59485;43.542;-5.676;2023-02-26T15:46:52;101636.66;;;10.50;100.00
71638;BME280;59485;43.542;-5.676;2023-02-26T15:49:29;101635.97;;;10.48;100.00
71638;BME280;59485;43.542;-5.676;2023-02-26T15:51:57;101632.72;;;10.37;100.00
71638;BME280;59485;43.542;-5.676;2023-02-26T15:54:24;101633.06;;;10.42;100.00
71638;BME280;59485;43.542;-5.676;2023-02-26T15:56:51;101634.44;;;10.38;100.00
71638;BME280;59485;43.542;-5.676;2023-02-26T15:59:20;101637.66;;;10.33;100.00
71638;BME280;59485;43.542;-5.676;2023-02-26T16:01:47;101643.66;;;10.29;100.00
71638;BME280;59485;43.542;-5.676;2023-02-26T16:04:15;101646.06;;;10.32;100.00
71638;BME280;59485;43.542;-5.676;2023-02-26T16:06:45;101642.28;;;10.33;100.00
71638;BME280;59485;43.542;-5.676;2023-02-26T16:09:19;101650.66;;;10.31;100.00
71638;BME280;59485;43.542;-5.676;2023-02-26T16:11:44;101640.56;;;10.32;100.00
71638;BME280;59485;43.542;-5.676;2023-02-26T16:14:14;101653.25;;;10.33;100.00
71638;BME280;59485;43.542;-5.676;2023-02-26T16:16:45;101657.88;;;10.32;100.00
71638;BME280;59485;43.542;-5.676;2023-02-26T16:19:13;101655.28;;;10.23;100.00
71638;BME280;59485;43.542;-5.676;2023-02-26T16:21:39;101651.78;;;10.12;100.00
71638;BME280;59485;43.542;-5.676;2023-02-26T16:24:11;101658.44;;;10.02;100.00